createdAt,value
2019-02-23T00:01:44.162Z,3.11
2019-02-23T00:06:46.210Z,3.02
2019-02-23T00:11:48.435Z,3.00
2019-02-23T00:16:50.503Z,2.96
2019-02-23T00:21:52.584Z,3.09
2019-02-23T00:26:54.637Z,3.11
2019-02-23T00:31:56.736Z,3.04
2019-02-23T00:36:58.852Z,3.03
2019-02-23T00:42:00.814Z,2.94
2019-02-23T00:47:04.660Z,2.93
2019-02-23T00:52:06.794Z,3.04
2019-02-23T00:57:08.826Z,3.20
2019-02-23T01:02:12.103Z,3.17
2019-02-23T01:07:14.674Z,3.31
2019-02-23T01:12:17.049Z,3.36
2019-02-23T01:17:19.046Z,3.50
2019-02-23T01:22:21.183Z,3.62
2019-02-23T01:27:25.623Z,3.68
2019-02-23T01:32:27.724Z,3.74
2019-02-23T01:37:29.761Z,3.77
2019-02-23T01:42:31.707Z,3.83
2019-02-23T01:47:33.781Z,3.76
2019-02-23T01:52:35.837Z,3.59
2019-02-23T01:57:37.914Z,3.69
2019-02-23T02:02:40.287Z,3.80
2019-02-23T02:07:44.511Z,3.79
2019-02-23T02:12:46.622Z,3.75
2019-02-23T02:17:48.725Z,3.77
2019-02-23T02:22:50.790Z,3.89
2019-02-23T02:27:54.538Z,3.88
2019-02-23T02:32:56.681Z,3.71
2019-02-23T02:37:58.754Z,3.74
2019-02-23T02:43:00.832Z,3.81
2019-02-23T02:48:02.924Z,3.73
2019-02-23T02:53:04.993Z,3.70
2019-02-23T02:58:07.662Z,3.59
2019-02-23T03:03:09.687Z,3.28
2019-02-23T03:08:11.787Z,3.19
2019-02-23T03:13:13.902Z,3.18
2019-02-23T03:18:15.972Z,3.11
2019-02-23T03:23:18.025Z,3.01
2019-02-23T03:28:20.062Z,2.94
2019-02-23T03:33:22.111Z,2.94
2019-02-23T03:38:24.134Z,2.92
2019-02-23T03:43:26.255Z,2.81
2019-02-23T03:48:28.291Z,2.84
2019-02-23T03:53:30.363Z,2.86
2019-02-23T03:58:32.490Z,2.85
2019-02-23T04:03:34.452Z,2.63
2019-02-23T04:08:36.485Z,2.62
2019-02-23T04:13:38.629Z,2.79
2019-02-23T04:18:40.720Z,2.74
2019-02-23T04:23:42.828Z,2.43
2019-02-23T04:28:44.971Z,2.43
2019-02-23T04:33:47.081Z,2.31
2019-02-23T04:38:49.253Z,2.26
2019-02-23T04:43:51.518Z,2.31
2019-02-23T04:48:53.599Z,2.24
2019-02-23T04:53:55.699Z,2.19
2019-02-23T04:58:57.769Z,2.22
2019-02-23T05:03:59.848Z,2.20
2019-02-23T05:09:02.162Z,2.26
2019-02-23T05:14:04.222Z,2.41
2019-02-23T05:19:06.373Z,2.40
2019-02-23T05:24:08.439Z,2.29
2019-02-23T05:29:10.495Z,2.29
2019-02-23T05:34:12.548Z,2.47
2019-02-23T05:39:17.687Z,2.56
2019-02-23T05:44:18.623Z,2.59
2019-02-23T05:49:20.767Z,2.31
2019-02-23T05:54:22.822Z,2.53
2019-02-23T05:59:24.910Z,2.47
2019-02-23T06:04:27.010Z,2.37
2019-02-23T06:09:30.865Z,2.34
2019-02-23T06:14:33.030Z,2.33
2019-02-23T06:19:35.161Z,2.47
2019-02-23T06:24:37.376Z,2.34
2019-02-23T06:29:39.425Z,2.40
2019-02-23T06:34:41.504Z,2.56
2019-02-23T06:39:43.640Z,2.73
2019-02-23T06:44:45.703Z,2.85
2019-02-23T06:49:47.863Z,2.91
2019-02-23T06:54:50.016Z,3.06
2019-02-23T06:59:52.082Z,3.24
2019-02-23T07:04:56.510Z,3.20
2019-02-23T07:09:58.562Z,3.29
2019-02-23T07:15:00.632Z,3.21
2019-02-23T07:20:02.859Z,3.26
2019-02-23T07:25:05.172Z,3.36
2019-02-23T07:30:08.603Z,3.45
2019-02-23T07:35:10.735Z,3.31
2019-02-23T07:40:12.858Z,3.67
2019-02-23T07:45:14.905Z,3.76
2019-02-23T07:50:16.954Z,4.16
2019-02-23T07:55:19.119Z,4.42
2019-02-23T08:00:21.296Z,4.58
2019-02-23T08:05:23.334Z,4.86
2019-02-23T08:10:25.406Z,5.21
2019-02-23T08:15:27.436Z,5.52
2019-02-23T08:20:29.465Z,5.75
2019-02-23T08:25:31.531Z,5.97
2019-02-23T08:30:33.628Z,6.22
2019-02-23T08:35:35.707Z,6.30
2019-02-23T08:40:46.086Z,6.37
2019-02-23T08:46:02.726Z,6.55
2019-02-23T08:51:04.899Z,6.69
2019-02-23T08:56:07.157Z,6.94
2019-02-23T09:01:09.732Z,7.13
2019-02-23T09:06:11.782Z,7.43
2019-02-23T09:11:13.805Z,7.54
2019-02-23T09:16:15.932Z,7.76
2019-02-23T09:21:18.335Z,7.93
2019-02-23T09:26:24.002Z,8.03
2019-02-23T09:31:26.477Z,7.80
2019-02-23T09:36:28.558Z,7.92
2019-02-23T09:41:34.434Z,7.95
2019-02-23T09:46:36.609Z,8.11
2019-02-23T09:51:44.729Z,8.17
2019-02-23T09:56:46.842Z,8.52
2019-02-23T10:01:48.984Z,8.52
2019-02-23T10:06:54.656Z,8.54
2019-02-23T10:11:57.016Z,8.57
2019-02-23T10:16:59.064Z,8.71
2019-02-23T10:22:04.790Z,8.90
2019-02-23T10:27:06.926Z,9.01
2019-02-23T10:32:09.097Z,9.15
2019-02-23T10:37:11.168Z,9.10
2019-02-23T10:42:13.348Z,9.28
2019-02-23T10:47:15.399Z,9.39
2019-02-23T10:52:21.975Z,9.26
2019-02-23T10:57:26.184Z,9.19
2019-02-23T11:02:28.277Z,9.16
2019-02-23T11:07:30.440Z,9.06
2019-02-23T11:12:32.482Z,9.04
2019-02-23T11:17:34.604Z,9.10
2019-02-23T11:22:36.886Z,9.12
2019-02-23T11:27:39.147Z,8.94
2019-02-23T11:32:41.302Z,9.09
2019-02-23T11:37:44.455Z,9.14
2019-02-23T11:42:46.746Z,9.15
2019-02-23T11:47:48.868Z,9.11
2019-02-23T11:52:50.960Z,9.23
2019-02-23T11:57:53.076Z,9.33
2019-02-23T12:02:55.295Z,9.53
2019-02-23T12:07:57.431Z,9.61
2019-02-23T12:12:59.500Z,9.58
2019-02-23T12:18:01.644Z,9.45
2019-02-23T12:23:03.773Z,9.67
2019-02-23T12:28:05.933Z,9.73
2019-02-23T12:33:10.320Z,9.82
2019-02-23T12:38:14.256Z,9.94
2019-02-23T12:43:16.365Z,9.94
2019-02-23T12:48:18.446Z,9.89
2019-02-23T12:53:20.588Z,9.80
2019-02-23T12:58:22.725Z,9.93
2019-02-23T13:03:24.800Z,9.97
2019-02-23T13:08:51.462Z,9.95
2019-02-23T13:14:32.647Z,10.00
2019-02-23T13:20:04.099Z,9.84
2019-02-23T13:25:22.331Z,9.79
2019-02-23T13:30:53.608Z,9.84
2019-02-23T13:36:38.658Z,9.79
2019-02-23T13:42:18.713Z,9.95
2019-02-23T13:48:03.420Z,9.91
2019-02-23T13:53:46.302Z,10.00
2019-02-23T13:59:15.922Z,10.07
2019-02-23T14:04:50.797Z,9.92
2019-02-23T14:10:42.620Z,9.86
2019-02-23T14:16:47.904Z,9.73
2019-02-23T14:22:35.661Z,9.65
2019-02-23T14:28:47.183Z,9.63
2019-02-23T14:34:41.946Z,9.54
2019-02-23T14:40:20.699Z,9.34
2019-02-23T14:46:16.888Z,9.11
2019-02-23T14:52:16.797Z,9.04
2019-02-23T14:58:03.030Z,9.05
2019-02-23T15:03:46.918Z,9.06
2019-02-23T15:09:25.335Z,9.04
2019-02-23T15:15:42.808Z,9.16
2019-02-23T15:21:20.369Z,9.02
2019-02-23T15:27:09.788Z,8.90
2019-02-23T15:32:49.632Z,8.97
2019-02-23T15:38:38.355Z,8.90
2019-02-23T15:44:21.588Z,9.03
2019-02-23T15:49:30.894Z,8.95
2019-02-23T15:54:35.185Z,8.92
2019-02-23T15:59:37.182Z,8.91
2019-02-23T16:04:39.344Z,8.67
2019-02-23T16:09:41.410Z,8.43
2019-02-23T16:14:43.488Z,8.30
2019-02-23T16:19:45.773Z,8.23
2019-02-23T16:24:48.062Z,8.31
2019-02-23T16:29:50.373Z,8.34
2019-02-23T16:34:52.481Z,8.05
2019-02-23T16:39:54.564Z,7.89
2019-02-23T16:45:00.016Z,7.90
2019-02-23T16:50:02.320Z,7.72
2019-02-23T16:55:04.612Z,7.70
2019-02-23T17:00:07.332Z,7.68
2019-02-23T17:05:11.679Z,7.69
2019-02-23T17:10:13.746Z,7.45
2019-02-23T17:15:15.794Z,7.31
2019-02-23T17:20:18.865Z,7.21
2019-02-23T17:25:21.034Z,6.98
2019-02-23T17:30:23.105Z,6.91
2019-02-23T17:35:25.128Z,6.78
2019-02-23T17:40:27.163Z,6.69
2019-02-23T17:45:29.209Z,6.65
2019-02-23T17:50:33.396Z,6.50
2019-02-23T17:55:35.414Z,6.50
2019-02-23T18:00:37.473Z,6.38
2019-02-23T18:05:39.524Z,6.27
2019-02-23T18:10:41.598Z,6.27
2019-02-23T18:15:43.653Z,6.34
2019-02-23T18:20:45.716Z,6.41
2019-02-23T18:25:47.778Z,6.35
2019-02-23T18:30:49.804Z,6.37
2019-02-23T18:35:51.924Z,6.34
2019-02-23T18:40:54.000Z,6.35
2019-02-23T18:45:57.946Z,6.48
2019-02-23T18:51:00.007Z,6.48
2019-02-23T18:56:03.186Z,6.44
2019-02-23T19:01:05.251Z,6.45
2019-02-23T19:06:07.352Z,6.43
2019-02-23T19:11:09.459Z,6.42
2019-02-23T19:16:11.486Z,6.36
2019-02-23T19:21:13.712Z,6.28
2019-02-23T19:26:15.845Z,6.26
2019-02-23T19:31:17.944Z,6.11
2019-02-23T19:36:25.133Z,6.11
2019-02-23T19:41:27.412Z,6.10
2019-02-23T19:46:29.541Z,6.15
2019-02-23T19:51:31.649Z,6.15
2019-02-23T19:56:35.551Z,6.19
2019-02-23T20:01:37.658Z,6.20
2019-02-23T20:06:39.721Z,6.23
2019-02-23T20:11:41.753Z,6.21
2019-02-23T20:16:44.181Z,6.13
2019-02-23T20:21:46.257Z,6.11
2019-02-23T20:26:55.392Z,6.08
2019-02-23T20:31:52.315Z,6.16
2019-02-23T20:36:54.371Z,5.97
2019-02-23T20:41:56.468Z,5.96
2019-02-23T20:46:58.589Z,6.00
2019-02-23T20:52:04.042Z,5.96
2019-02-23T20:57:13.682Z,5.99
2019-02-23T21:02:10.350Z,5.96
2019-02-23T21:07:12.441Z,6.08
2019-02-23T21:12:14.566Z,6.12
2019-02-23T21:17:16.713Z,6.13
2019-02-23T21:22:19.390Z,6.10
2019-02-23T21:27:21.577Z,6.13
2019-02-23T21:32:23.666Z,6.07
2019-02-23T21:37:25.708Z,6.04
2019-02-23T21:42:27.756Z,6.12
2019-02-23T21:47:29.811Z,6.13
2019-02-23T21:52:31.919Z,6.16
2019-02-23T21:57:34.041Z,6.10
2019-02-23T22:02:36.184Z,6.06
2019-02-23T22:07:38.381Z,6.09
2019-02-23T22:12:42.349Z,6.18
2019-02-23T22:17:44.434Z,6.21
2019-02-23T22:22:46.530Z,6.19
2019-02-23T22:27:52.264Z,6.06
2019-02-23T22:32:55.597Z,6.01
2019-02-23T22:37:57.707Z,5.94
2019-02-23T22:42:59.776Z,5.94
2019-02-23T22:48:01.797Z,6.01
2019-02-23T22:53:03.880Z,6.03
2019-02-23T22:58:05.947Z,5.97
2019-02-23T23:03:07.988Z,6.00
2019-02-23T23:08:10.033Z,6.00
2019-02-23T23:13:12.095Z,6.00
2019-02-23T23:18:14.214Z,5.99
2019-02-23T23:23:16.258Z,5.96
2019-02-23T23:28:18.373Z,5.93
2019-02-23T23:33:20.436Z,5.97
2019-02-23T23:38:22.521Z,5.95
2019-02-23T23:43:24.584Z,5.93
2019-02-23T23:48:26.643Z,5.91
2019-02-23T23:53:28.705Z,5.73
2019-02-23T23:58:30.784Z,5.84
